KTOI/TOI METAR and TAF weather

Enter ICAO airport designator
Station Type Date Time Source
KTOI METAR 2020/08/15 16:53 UTC NOAA

KTOI 151653Z AUTO 20004KT 10SM BKN016 BKN020 OVC028 28/23 A2996 RMK AO2 SLP139 T02780228


Station Type Date Time Source
KTOI Decoded METAR 2020/08/15 16:53 UTC NOAA

TROY MUNICIPAL AIRPORT, AL, United States (KTOI) 31-52N 086-01W 118M
Aug 15, 2020 - 12:53 PM EDT / 2020.08.15 1653 UTC
Wind: from the SSW (200 degrees) at 5 MPH (4 KT):0
Visibility: 10 mile(s):0
Sky conditions: overcast
Temperature: 82.0 F (27.8 C)
Dew Point: 73.0 F (22.8 C)
Relative Humidity: 74%
Pressure (altimeter): 29.96 in. Hg (1014 hPa)
ob: KTOI 151653Z AUTO 20004KT 10SM BKN016 BKN020 OVC028 28/23 A2996 RMK AO2 SLP139 T02780228
cycle: 17

Station Type Date Time Source
KTOI TAF 2020/08/15 14:06 UTC NOAA

TAF
AMD KTOI 151405Z 1514/1612 VRB05KT P6SM SCT008 BKN025
TEMPO 1514/1515 6SM BR OVC005
FM151600 29008KT P6SM SCT030
FM151900 26009KT P6SM SHRA VCTS BKN045CB
FM160000 30008KT P6SM BKN060 PROB30 1600/1603 4SM SHRA OVC025
FM160600 29002KT P6SM SKC

Example: see airport list